Time;durP1;ratioP1;P1;durP2;ratioP2;P2;SDS_P1;SDS_P2;PMS_P1;PMS_P2;Temp;Humidity;BMP_temperature;BMP_pressure;BME280_temperature;BME280_humidity;BME280_pressure;Samples;Min_cycle;Max_cycle;Signal;HPM_P1;HPM_P2
2021/03/14 00:00:52;;;;;;;56.10;2.70;;;3.90;1.00;;;;;;5134272;27;20235;-67
2021/03/14 00:03:20;;;;;;;60.00;3.05;;;4.00;1.00;;;;;;5133768;27;20687;-66
2021/03/14 00:05:48;;;;;;;55.17;2.40;;;3.90;1.00;;;;;;5134579;27;20210;-67
2021/03/14 00:08:17;;;;;;;55.40;2.30;;;3.90;1.00;;;;;;5133785;27;20215;-67
2021/03/14 00:10:45;;;;;;;55.65;2.30;;;3.90;1.00;;;;;;5133978;27;20687;-67
2021/03/14 00:13:14;;;;;;;58.53;2.58;;;4.00;1.00;;;;;;5134119;27;20636;-66
2021/03/14 00:15:40;;;;;;;55.97;2.45;;;4.00;1.00;;;;;;5134040;27;20199;-66
2021/03/14 00:18:08;;;;;;;55.65;2.28;;;4.00;1.00;;;;;;5133821;27;20326;-66
2021/03/14 00:20:35;;;;;;;55.80;2.50;;;4.00;1.00;;;;;;5133782;27;20293;-66
2021/03/14 00:23:03;;;;;;;56.25;3.10;;;4.00;1.00;;;;;;5133585;27;20762;-67
2021/03/14 00:25:29;;;;;;;56.75;2.20;;;4.00;1.00;;;;;;5133631;27;20294;-66
2021/03/14 00:27:56;;;;;;;56.85;2.20;;;4.00;1.00;;;;;;5133619;27;20215;-67
2021/03/14 00:30:26;;;;;;;58.25;2.55;;;4.10;1.00;;;;;;5133615;27;20207;-66
2021/03/14 00:32:52;;;;;;;57.40;2.90;;;4.10;1.00;;;;;;5133512;27;20199;-67
2021/03/14 00:35:19;;;;;;;56.20;2.70;;;4.00;1.00;;;;;;5133533;27;20297;-66
2021/03/14 00:37:47;;;;;;;56.80;2.50;;;4.10;1.00;;;;;;5133440;27;20233;-66
2021/03/14 00:40:14;;;;;;;55.38;2.60;;;4.10;1.00;;;;;;5133271;27;20363;-67
2021/03/14 00:42:40;;;;;;;56.20;2.40;;;4.10;1.00;;;;;;5133444;27;20318;-67
2021/03/14 00:45:08;;;;;;;56.28;2.50;;;4.10;1.00;;;;;;5133379;27;20622;-66
2021/03/14 00:47:36;;;;;;;55.88;2.30;;;4.10;1.00;;;;;;5133384;27;20241;-67
2021/03/14 00:50:03;;;;;;;55.85;2.20;;;4.10;1.00;;;;;;5133046;27;20674;-67
2021/03/14 00:52:29;;;;;;;56.80;2.25;;;4.00;1.00;;;;;;5133074;27;20199;-67
2021/03/14 00:54:56;;;;;;;61.50;3.15;;;3.90;1.00;;;;;;5133057;27;20235;-67
2021/03/14 00:57:22;;;;;;;55.67;2.42;;;3.90;1.00;;;;;;5133332;27;20309;-67
2021/03/14 00:59:48;;;;;;;57.33;2.17;;;3.80;1.00;;;;;;5133153;27;20239;-67
2021/03/14 01:02:15;;;;;;;55.60;2.10;;;3.80;1.00;;;;;;5132867;27;20212;-67
2021/03/14 01:04:42;;;;;;;56.03;2.50;;;3.80;1.00;;;;;;5132687;27;20202;-67
2021/03/14 01:07:09;;;;;;;56.58;2.42;;;3.70;1.00;;;;;;5132820;27;20254;-67
2021/03/14 01:09:35;;;;;;;54.83;2.40;;;3.70;1.00;;;;;;5133026;27;20550;-67
2021/03/14 01:12:01;;;;;;;55.85;2.47;;;3.60;1.00;;;;;;5132857;27;20298;-67
2021/03/14 01:14:27;;;;;;;56.25;2.40;;;3.60;1.00;;;;;;5126640;27;20199;-67
2021/03/14 01:16:54;;;;;;;55.85;2.50;;;3.60;1.00;;;;;;5132799;27;20283;-67
2021/03/14 01:19:20;;;;;;;55.92;2.80;;;3.60;1.00;;;;;;5132859;27;20199;-67
2021/03/14 01:21:47;;;;;;;55.58;2.35;;;3.60;1.00;;;;;;5132871;27;20242;-67
2021/03/14 01:24:14;;;;;;;54.92;2.15;;;3.60;1.00;;;;;;5132622;27;20290;-67
2021/03/14 01:26:40;;;;;;;56.38;2.60;;;3.50;1.00;;;;;;5132583;27;20611;-67
2021/03/14 01:29:07;;;;;;;56.10;3.03;;;3.50;1.00;;;;;;5132428;27;20681;-67
2021/03/14 01:31:33;;;;;;;56.00;2.47;;;3.50;1.00;;;;;;5132603;27;20268;-67
2021/03/14 01:33:59;;;;;;;55.78;2.17;;;3.50;1.00;;;;;;5130642;27;20285;-67
2021/03/14 01:36:26;;;;;;;55.60;2.38;;;3.50;1.00;;;;;;5132104;27;20324;-67
2021/03/14 01:38:53;;;;;;;55.88;2.58;;;3.50;1.00;;;;;;5132325;27;20207;-67
2021/03/14 01:41:19;;;;;;;56.53;2.35;;;3.50;1.00;;;;;;5132418;27;20285;-67
2021/03/14 01:43:46;;;;;;;55.78;2.50;;;3.50;1.00;;;;;;5132460;27;20202;-67
2021/03/14 01:46:12;;;;;;;55.80;2.70;;;3.60;1.00;;;;;;5132243;27;20353;-67
2021/03/14 01:48:39;;;;;;;56.33;2.80;;;3.60;1.00;;;;;;5132410;27;20556;-67
2021/03/14 01:51:06;;;;;;;55.55;2.60;;;3.50;1.00;;;;;;5132404;27;20202;-67
2021/03/14 01:53:33;;;;;;;55.47;2.45;;;3.50;1.00;;;;;;5132419;27;20203;-67
2021/03/14 01:56:01;;;;;;;55.95;2.80;;;3.50;1.00;;;;;;5132337;27;20237;-67
2021/03/14 01:58:28;;;;;;;55.55;2.42;;;3.50;1.00;;;;;;5132227;27;20223;-67
2021/03/14 02:00:55;;;;;;;56.00;2.65;;;3.50;1.00;;;;;;5132170;27;20730;-67
2021/03/14 02:03:24;;;;;;;55.65;2.58;;;3.50;1.00;;;;;;5132210;27;20247;-67
2021/03/14 02:05:50;;;;;;;56.17;3.00;;;3.50;1.00;;;;;;5132122;27;20294;-67
2021/03/14 02:08:17;;;;;;;56.20;2.80;;;3.50;1.00;;;;;;5132228;27;20325;-67
2021/03/14 02:10:46;;;;;;;55.25;2.60;;;3.50;1.00;;;;;;5132389;27;20293;-67
2021/03/14 02:13:17;;;;;;;56.47;2.40;;;3.40;1.00;;;;;;5131886;27;20203;-67
2021/03/14 02:15:47;;;;;;;55.60;2.72;;;3.40;1.00;;;;;;5132420;27;20207;-67
2021/03/14 02:18:16;;;;;;;55.60;2.90;;;3.40;1.00;;;;;;5132144;27;20237;-67
2021/03/14 02:20:43;;;;;;;55.38;2.60;;;3.40;1.00;;;;;;5132232;27;20207;-67
2021/03/14 02:23:31;;;;;;;56.58;2.28;;;3.40;1.00;;;;;;5131863;27;20213;-67
2021/03/14 02:26:02;;;;;;;56.17;2.60;;;3.40;1.00;;;;;;5132949;27;20250;-67
2021/03/14 02:28:30;;;;;;;55.85;2.40;;;3.50;1.00;;;;;;5136023;27;20199;-67
2021/03/14 02:30:59;;;;;;;55.33;2.60;;;3.40;1.00;;;;;;5135995;27;20803;-67
2021/03/14 02:33:28;;;;;;;55.42;2.45;;;3.40;1.00;;;;;;5136004;27;20210;-67
2021/03/14 02:35:57;;;;;;;56.47;3.25;;;3.40;1.00;;;;;;5135868;27;20240;-67
2021/03/14 02:38:23;;;;;;;55.90;2.70;;;3.40;1.00;;;;;;5127023;27;20317;-67
2021/03/14 02:40:50;;;;;;;55.58;2.65;;;3.40;1.00;;;;;;5135783;27;20207;-67
2021/03/14 02:43:18;;;;;;;55.97;2.63;;;3.40;1.00;;;;;;5135541;27;20731;-67
2021/03/14 02:45:45;;;;;;;56.55;2.78;;;3.40;1.00;;;;;;5135810;27;20251;-67
2021/03/14 02:48:13;;;;;;;57.42;2.80;;;3.40;1.00;;;;;;5135647;27;20309;-67
2021/03/14 02:50:40;;;;;;;55.08;2.60;;;3.40;1.00;;;;;;5135474;27;20217;-67
2021/03/14 02:53:07;;;;;;;56.28;2.60;;;3.30;1.00;;;;;;5135276;27;20294;-67
2021/03/14 02:55:34;;;;;;;59.50;2.92;;;3.30;1.00;;;;;;5135484;27;20255;-67
2021/03/14 02:58:02;;;;;;;56.38;3.03;;;3.30;1.00;;;;;;5135550;27;20605;-67
2021/03/14 03:00:31;;;;;;;55.40;2.92;;;3.30;1.00;;;;;;5135600;27;20577;-67
2021/03/14 03:02:59;;;;;;;57.60;2.90;;;3.20;1.00;;;;;;5135242;27;20762;-67
2021/03/14 03:05:26;;;;;;;56.70;2.92;;;3.20;1.00;;;;;;5135066;27;20295;-67
2021/03/14 03:07:55;;;;;;;57.15;3.05;;;3.20;1.00;;;;;;5135395;27;20306;-67
2021/03/14 03:10:25;;;;;;;61.88;3.15;;;3.20;1.00;;;;;;5135426;27;20339;-67
2021/03/14 03:12:52;;;;;;;58.47;3.60;;;3.20;1.00;;;;;;5134867;27;20293;-67
2021/03/14 03:15:20;;;;;;;57.28;3.20;;;3.20;1.00;;;;;;5132185;27;20205;-67
2021/03/14 03:17:49;;;;;;;57.65;3.42;;;3.20;1.00;;;;;;5134820;27;20315;-67
2021/03/14 03:20:17;;;;;;;56.72;3.22;;;3.20;1.00;;;;;;5134854;27;20199;-67
2021/03/14 03:22:44;;;;;;;57.70;3.50;;;3.20;1.00;;;;;;5135029;27;20209;-67
2021/03/14 03:25:10;;;;;;;56.53;3.53;;;3.20;1.00;;;;;;5135038;27;20206;-67
2021/03/14 03:27:38;;;;;;;56.70;3.47;;;3.20;1.00;;;;;;5135193;27;20215;-67
2021/03/14 03:30:06;;;;;;;56.40;3.55;;;3.30;1.00;;;;;;5134881;27;20217;-67
2021/03/14 03:32:33;;;;;;;58.25;4.22;;;3.30;1.00;;;;;;5128822;27;20659;-67
2021/03/14 03:34:59;;;;;;;56.38;4.00;;;3.30;1.00;;;;;;5134646;27;20734;-67
2021/03/14 03:37:26;;;;;;;56.47;3.47;;;3.30;1.00;;;;;;5133989;27;20318;-67
2021/03/14 03:39:53;;;;;;;55.58;3.40;;;3.30;1.00;;;;;;5134608;27;20302;-67
2021/03/14 03:42:24;;;;;;;57.08;3.53;;;3.30;1.00;;;;;;5134976;27;20199;-67
2021/03/14 03:44:51;;;;;;;56.63;3.70;;;3.30;1.00;;;;;;5134726;27;20238;-67
2021/03/14 03:47:18;;;;;;;57.20;3.78;;;3.40;1.00;;;;;;5134598;27;20225;-67
2021/03/14 03:49:48;;;;;;;56.20;3.38;;;3.40;1.00;;;;;;5134738;27;20203;-67
2021/03/14 03:52:17;;;;;;;56.63;3.42;;;3.30;1.00;;;;;;5134335;27;20293;-67
2021/03/14 03:54:46;;;;;;;57.92;4.00;;;3.30;1.00;;;;;;5134465;27;20667;-67
2021/03/14 03:57:13;;;;;;;56.45;3.25;;;3.30;1.00;;;;;;5134120;27;20223;-67
2021/03/14 03:59:40;;;;;;;56.80;3.70;;;3.30;1.00;;;;;;5134102;27;20210;-67
2021/03/14 04:02:07;;;;;;;57.50;3.13;;;3.20;1.00;;;;;;5134355;27;20244;-66
2021/03/14 04:04:38;;;;;;;56.47;3.20;;;3.20;1.00;;;;;;5134356;27;20709;-66
2021/03/14 04:07:05;;;;;;;55.85;3.22;;;3.20;1.00;;;;;;5134096;27;20313;-65
2021/03/14 04:09:32;;;;;;;56.72;3.45;;;3.20;1.00;;;;;;5134087;27;20286;-66
2021/03/14 04:12:00;;;;;;;56.35;3.72;;;3.20;1.00;;;;;;5133843;27;20207;-66
2021/03/14 04:14:28;;;;;;;59.05;4.05;;;3.20;1.00;;;;;;5134445;27;20298;-66
2021/03/14 04:16:56;;;;;;;56.70;3.70;;;3.20;1.00;;;;;;5134049;27;20226;-66
2021/03/14 04:19:26;;;;;;;57.05;3.55;;;3.10;1.00;;;;;;5134143;27;20297;-66
2021/03/14 04:21:54;;;;;;;57.25;3.30;;;3.20;1.00;;;;;;5133892;27;20293;-66
2021/03/14 04:24:22;;;;;;;55.88;2.85;;;3.20;1.00;;;;;;5133783;27;20206;-66
2021/03/14 04:26:50;;;;;;;56.28;3.17;;;3.10;1.00;;;;;;5133486;27;20313;-66
2021/03/14 04:29:19;;;;;;;57.65;3.25;;;3.10;1.00;;;;;;5133905;27;20249;-66
2021/03/14 04:31:47;;;;;;;56.42;3.90;;;3.20;1.00;;;;;;5133806;27;20290;-66
2021/03/14 04:34:15;;;;;;;59.35;3.40;;;3.20;1.00;;;;;;5133525;27;20267;-66
2021/03/14 04:36:45;;;;;;;55.67;3.20;;;3.20;1.00;;;;;;5133422;27;20259;-66
2021/03/14 04:39:12;;;;;;;55.90;3.00;;;3.20;1.00;;;;;;5133251;27;20639;-66
2021/03/14 04:41:41;;;;;;;56.90;3.50;;;3.20;1.00;;;;;;5133637;27;20521;-66
2021/03/14 04:44:09;;;;;;;55.65;3.20;;;3.10;1.00;;;;;;5133579;27;20275;-66
2021/03/14 04:46:38;;;;;;;55.90;2.70;;;3.20;1.00;;;;;;5133407;27;20378;-66
2021/03/14 04:49:05;;;;;;;57.35;3.58;;;3.20;1.00;;;;;;5132608;27;20290;-66
2021/03/14 04:51:33;;;;;;;56.67;3.15;;;3.20;1.00;;;;;;5133003;27;20535;-66
2021/03/14 04:54:00;;;;;;;55.80;3.13;;;3.20;1.00;;;;;;5133395;27;20259;-66
2021/03/14 04:56:28;;;;;;;56.30;3.13;;;3.20;1.00;;;;;;5133337;27;20255;-66
2021/03/14 04:58:56;;;;;;;62.22;3.67;;;3.20;1.00;;;;;;5132884;27;20219;-66
2021/03/14 05:01:23;;;;;;;55.28;2.80;;;3.20;1.00;;;;;;5133283;27;20289;-66
2021/03/14 05:03:53;;;;;;;56.33;3.10;;;3.20;1.00;;;;;;5132952;27;20209;-66
2021/03/14 05:06:21;;;;;;;56.45;3.40;;;3.20;1.00;;;;;;5132929;27;20231;-66
2021/03/14 05:08:49;;;;;;;57.30;3.42;;;3.30;1.00;;;;;;5133123;27;20285;-66
2021/03/14 05:11:17;;;;;;;58.08;3.60;;;3.30;1.00;;;;;;5133191;27;20293;-66
2021/03/14 05:13:44;;;;;;;58.95;3.40;;;3.30;1.00;;;;;;5126188;27;20604;-66
2021/03/14 05:16:12;;;;;;;55.90;2.80;;;3.30;1.00;;;;;;5132561;27;20226;-66
2021/03/14 05:18:39;;;;;;;56.95;2.97;;;3.30;1.00;;;;;;5132761;27;20211;-66
2021/03/14 05:21:08;;;;;;;57.72;3.50;;;3.20;1.00;;;;;;5132993;27;20207;-66
2021/03/14 05:23:35;;;;;;;56.20;3.42;;;3.20;1.00;;;;;;5132885;27;20637;-66
2021/03/14 05:26:02;;;;;;;58.13;3.70;;;3.20;1.00;;;;;;5132554;27;20552;-66
2021/03/14 05:28:29;;;;;;;56.85;3.17;;;3.20;1.00;;;;;;5132673;27;20247;-66
2021/03/14 05:30:56;;;;;;;56.67;3.30;;;3.20;1.00;;;;;;5132965;27;20452;-66
2021/03/14 05:33:22;;;;;;;57.00;3.25;;;3.20;1.00;;;;;;5127504;27;20254;-66
2021/03/14 05:35:49;;;;;;;56.80;3.50;;;3.30;1.00;;;;;;5132148;27;20305;-66
2021/03/14 05:38:16;;;;;;;60.17;3.38;;;3.20;1.00;;;;;;5132669;27;20309;-66
2021/03/14 05:40:43;;;;;;;56.58;3.47;;;3.20;1.00;;;;;;5132625;27;20206;-66
2021/03/14 05:43:10;;;;;;;60.05;3.95;;;3.20;1.00;;;;;;5124683;27;20640;-66
2021/03/14 05:45:37;;;;;;;58.15;3.60;;;3.20;1.00;;;;;;5129452;27;20678;-66
2021/03/14 05:48:04;;;;;;;58.78;3.85;;;3.20;1.00;;;;;;5125179;28;20254;-66
2021/03/14 05:50:31;;;;;;;58.15;4.05;;;3.20;1.00;;;;;;5132121;27;20285;-66
2021/03/14 05:53:00;;;;;;;58.90;3.70;;;3.20;1.00;;;;;;5130990;27;20230;-66
2021/03/14 05:55:28;;;;;;;57.65;3.63;;;3.20;1.00;;;;;;5129716;28;20211;-66
2021/03/14 05:57:55;;;;;;;56.65;3.22;;;3.30;1.00;;;;;;5131941;27;20318;-66
2021/03/14 06:00:26;;;;;;;60.85;3.60;;;3.30;1.00;;;;;;5132602;27;20282;-66
2021/03/14 06:02:55;;;;;;;57.90;3.85;;;3.30;1.00;;;;;;5136770;27;20257;-66
2021/03/14 06:05:21;;;;;;;57.92;2.92;;;3.30;1.00;;;;;;5136307;27;20203;-66
2021/03/14 06:07:48;;;;;;;56.30;2.72;;;3.30;1.00;;;;;;5136186;27;20225;-66
2021/03/14 06:10:15;;;;;;;57.70;3.50;;;3.40;1.00;;;;;;5136413;27;20288;-66
2021/03/14 06:12:43;;;;;;;57.25;3.45;;;3.40;1.00;;;;;;5136222;27;20671;-66
2021/03/14 06:15:11;;;;;;;58.25;3.70;;;3.40;1.00;;;;;;5136172;27;20210;-66
2021/03/14 06:17:38;;;;;;;56.08;3.25;;;3.50;1.00;;;;;;5136275;27;20606;-66
2021/03/14 06:20:06;;;;;;;57.10;3.45;;;3.50;1.00;;;;;;5136392;27;20290;-66
2021/03/14 06:22:32;;;;;;;57.70;3.60;;;3.40;1.00;;;;;;5136325;27;20672;-66
2021/03/14 06:24:59;;;;;;;57.33;3.58;;;3.40;1.00;;;;;;5136144;27;20230;-66
2021/03/14 06:27:33;;;;;;;57.30;3.67;;;3.40;1.00;;;;;;5135874;27;20254;-66
2021/03/14 06:30:01;;;;;;;58.58;3.88;;;3.50;1.00;;;;;;5136329;27;20203;-66
2021/03/14 06:32:28;;;;;;;56.55;3.38;;;3.40;1.00;;;;;;5135957;27;20252;-66
2021/03/14 06:35:15;;;;;;;57.35;3.50;;;3.50;1.00;;;;;;5136059;27;20219;-67
2021/03/14 06:37:42;;;;;;;59.17;3.45;;;3.50;1.00;;;;;;5135872;27;20249;-66
2021/03/14 06:40:14;;;;;;;58.08;3.20;;;3.50;1.00;;;;;;5135513;27;20775;-66
2021/03/14 06:42:41;;;;;;;56.97;3.55;;;3.60;1.00;;;;;;5135971;27;20203;-66
2021/03/14 06:45:11;;;;;;;57.35;3.60;;;3.60;1.00;;;;;;5135759;27;20199;-66
2021/03/14 06:47:39;;;;;;;59.95;3.40;;;3.60;1.00;;;;;;5135593;27;20322;-66
2021/03/14 06:50:07;;;;;;;57.63;3.70;;;3.60;1.00;;;;;;5135578;27;20280;-67
2021/03/14 06:52:33;;;;;;;57.75;3.40;;;3.80;1.00;;;;;;5135373;27;20211;-66
2021/03/14 06:55:00;;;;;;;58.92;3.25;;;3.80;1.00;;;;;;5135567;27;20202;-67
2021/03/14 06:57:26;;;;;;;58.45;3.25;;;3.80;1.00;;;;;;5135160;27;20270;-67
2021/03/14 06:59:54;;;;;;;58.25;3.15;;;3.90;1.00;;;;;;5135523;27;20209;-67
2021/03/14 07:02:23;;;;;;;57.30;3.53;;;3.90;1.00;;;;;;5135489;27;20209;-66
2021/03/14 07:04:50;;;;;;;59.45;3.75;;;3.90;1.00;;;;;;5135380;27;20207;-66
2021/03/14 07:07:22;;;;;;;56.75;3.30;;;4.00;1.00;;;;;;5135097;27;20382;-67
2021/03/14 07:09:54;;;;;;;58.97;3.20;;;4.00;1.00;;;;;;5135324;27;20206;-67
2021/03/14 07:12:23;;;;;;;58.22;3.70;;;4.10;1.00;;;;;;5134175;27;20877;-67
2021/03/14 07:14:50;;;;;;;57.53;3.10;;;4.10;1.00;;;;;;5134782;27;20215;-66
2021/03/14 07:17:35;;;;;;;56.13;3.25;;;4.10;1.00;;;;;;5134775;27;20305;-66
2021/03/14 07:20:12;;;;;;;57.38;3.33;;;4.20;1.00;;;;;;5127290;27;20293;-67
2021/03/14 07:22:39;;;;;;;60.72;3.75;;;4.20;1.00;;;;;;5131581;27;20247;-67
2021/03/14 07:25:19;;;;;;;59.30;3.65;;;4.30;1.00;;;;;;5134777;27;20203;-67
2021/03/14 07:27:47;;;;;;;58.28;3.35;;;4.30;1.00;;;;;;5134731;27;20214;-67
2021/03/14 07:30:16;;;;;;;56.17;3.40;;;4.40;1.00;;;;;;5134815;27;20209;-66
2021/03/14 07:32:46;;;;;;;60.97;3.78;;;4.40;1.00;;;;;;5131592;27;20534;-67
2021/03/14 07:35:13;;;;;;;57.60;3.20;;;4.50;1.00;;;;;;5134648;27;20209;-67
2021/03/14 07:37:42;;;;;;;59.30;3.85;;;4.50;1.00;;;;;;5128529;27;20304;-67
2021/03/14 07:40:09;;;;;;;59.28;4.10;;;4.50;1.00;;;;;;5126793;27;20206;-67
2021/03/14 07:42:35;;;;;;;58.75;3.60;;;4.50;1.00;;;;;;5134298;27;20279;-66
2021/03/14 07:45:03;;;;;;;60.35;3.90;;;4.40;1.00;;;;;;5134526;27;20297;-66
2021/03/14 07:47:34;;;;;;;57.35;3.25;;;4.40;1.00;;;;;;5134509;27;20314;-66
2021/03/14 07:50:02;;;;;;;61.60;3.38;;;4.40;1.00;;;;;;5134649;27;20202;-66
2021/03/14 07:52:31;;;;;;;57.60;3.25;;;4.50;1.00;;;;;;5134324;27;20209;-66
2021/03/14 07:55:00;;;;;;;59.42;3.65;;;4.60;1.00;;;;;;5133986;27;20209;-66
2021/03/14 07:57:28;;;;;;;76.70;5.70;;;4.60;1.00;;;;;;5132292;27;20317;-67
2021/03/14 07:59:55;;;;;;;59.42;4.47;;;4.70;1.00;;;;;;5128179;27;20239;-66
2021/03/14 08:02:29;;;;;;;58.13;3.00;;;4.60;1.00;;;;;;5133929;27;20286;-66
2021/03/14 08:04:57;;;;;;;60.40;3.95;;;4.50;1.00;;;;;;5134128;27;20252;-66
2021/03/14 08:07:47;;;;;;;58.42;4.30;;;4.50;1.00;;;;;;5133981;27;20227;-66
2021/03/14 08:10:34;;;;;;;56.67;3.35;;;4.40;1.00;;;;;;5134028;27;20699;-66
2021/03/14 08:13:01;;;;;;;57.22;2.72;;;4.30;1.00;;;;;;5130064;27;20221;-66
2021/03/14 08:15:29;;;;;;;59.50;3.35;;;4.40;1.00;;;;;;5125736;27;20293;-66
2021/03/14 08:17:58;;;;;;;59.78;3.45;;;4.30;1.00;;;;;;5126795;27;20230;-67
2021/03/14 08:20:42;;;;;;;59.53;3.70;;;4.40;1.00;;;;;;5127761;27;20655;-67
2021/03/14 08:23:11;;;;;;;56.50;2.88;;;4.50;1.00;;;;;;5125205;27;20210;-67
2021/03/14 08:25:40;;;;;;;56.75;2.70;;;4.70;1.00;;;;;;5130301;27;20684;-66
2021/03/14 08:28:28;;;;;;;58.47;2.63;;;4.90;1.00;;;;;;5125645;27;20286;-67
2021/03/14 08:30:55;;;;;;;55.72;2.70;;;5.10;1.00;;;;;;5133784;27;20620;-66
2021/03/14 08:33:28;;;;;;;58.42;3.08;;;5.20;1.00;;;;;;5133661;27;20686;-66
2021/03/14 08:35:57;;;;;;;57.88;3.08;;;5.20;1.00;;;;;;5126574;27;20211;-66
2021/03/14 08:38:30;;;;;;;58.60;3.28;;;5.20;1.00;;;;;;5133246;27;20230;-67
2021/03/14 08:41:19;;;;;;;63.47;3.03;;;5.30;1.00;;;;;;5133181;27;20201;-66
2021/03/14 08:43:47;;;;;;;56.75;3.00;;;5.50;1.00;;;;;;5133236;27;20720;-66
2021/03/14 08:46:14;;;;;;;57.35;3.10;;;5.70;1.00;;;;;;5133444;27;20294;-66
2021/03/14 08:48:40;;;;;;;57.20;2.90;;;5.90;1.00;;;;;;5133514;27;20682;-67
2021/03/14 08:51:08;;;;;;;56.38;2.97;;;6.10;1.00;;;;;;5133226;27;20291;-67
2021/03/14 08:53:36;;;;;;;56.13;2.85;;;6.10;1.00;;;;;;5133156;27;20297;-67
2021/03/14 08:56:04;;;;;;;57.55;3.50;;;6.20;1.00;;;;;;5133543;27;20586;-66
2021/03/14 08:58:31;;;;;;;56.72;2.90;;;6.30;1.00;;;;;;5128791;27;20231;-67
2021/03/14 09:01:08;;;;;;;56.70;2.90;;;6.30;1.00;;;;;;5127772;27;20294;-67
2021/03/14 09:03:42;;;;;;;58.00;2.75;;;6.30;1.00;;;;;;5123496;27;20236;-66
2021/03/14 09:06:29;;;;;;;56.88;2.72;;;6.40;1.00;;;;;;5128013;27;20250;-67
2021/03/14 09:08:58;;;;;;;57.13;2.50;;;6.20;1.00;;;;;;5131069;27;20669;-66
2021/03/14 09:11:52;;;;;;;57.47;3.20;;;6.10;1.00;;;;;;5122643;27;20302;-66
2021/03/14 09:14:23;;;;;;;59.33;2.80;;;5.80;1.00;;;;;;5087841;27;20239;-67
2021/03/14 09:16:50;;;;;;;57.95;2.83;;;5.80;1.00;;;;;;5131481;27;20314;-67
2021/03/14 09:19:22;;;;;;;57.22;2.63;;;5.70;1.00;;;;;;5132166;27;20771;-66
2021/03/14 09:21:49;;;;;;;60.00;3.47;;;5.70;1.00;;;;;;5131771;27;20238;-66
2021/03/14 09:24:27;;;;;;;58.15;3.00;;;5.60;1.00;;;;;;5132726;27;20281;-66
2021/03/14 09:27:22;;;;;;;56.60;2.70;;;5.60;1.00;;;;;;5132468;27;20722;-66
2021/03/14 09:29:53;;;;;;;58.65;2.60;;;5.60;1.00;;;;;;5132817;27;20666;-66
2021/03/14 09:32:39;;;;;;;56.08;2.40;;;5.60;1.00;;;;;;5132973;27;20259;-67
2021/03/14 09:35:21;;;;;;;59.88;2.30;;;5.70;1.00;;;;;;5132319;27;20294;-67
2021/03/14 09:37:50;;;;;;;56.45;2.70;;;5.70;1.00;;;;;;5128557;27;20229;-67
2021/03/14 09:40:31;;;;;;;56.00;2.47;;;5.70;1.00;;;;;;5132694;27;20289;-67
2021/03/14 09:43:09;;;;;;;57.42;3.10;;;5.60;1.00;;;;;;5132487;27;20581;-66
2021/03/14 09:45:37;;;;;;;63.88;3.35;;;5.60;1.00;;;;;;5132368;27;20278;-67
2021/03/14 09:48:09;;;;;;;57.67;2.55;;;5.70;1.00;;;;;;5132687;27;20223;-67
2021/03/14 09:50:39;;;;;;;58.05;2.80;;;5.80;1.00;;;;;;5132354;27;20297;-67
2021/03/14 09:53:07;;;;;;;57.88;2.90;;;6.00;1.00;;;;;;5132687;27;20655;-67
2021/03/14 09:55:36;;;;;;;58.92;3.47;;;6.10;1.00;;;;;;5132354;27;20356;-66
2021/03/14 09:58:03;;;;;;;59.20;3.38;;;6.10;1.00;;;;;;5132189;27;20290;-67
2021/03/14 10:00:32;;;;;;;57.45;2.90;;;6.20;1.00;;;;;;5132354;27;20675;-66
2021/03/14 10:03:03;;;;;;;56.25;2.35;;;6.20;1.00;;;;;;5132348;27;20747;-67
2021/03/14 10:05:45;;;;;;;58.75;2.60;;;6.20;1.00;;;;;;5130767;27;20623;-66
2021/03/14 10:08:17;;;;;;;57.25;2.47;;;6.30;1.00;;;;;;5130514;28;20730;-66
2021/03/14 10:10:45;;;;;;;59.40;2.50;;;6.50;1.00;;;;;;5132374;27;20207;-67
2021/03/14 10:13:13;;;;;;;57.00;2.72;;;6.60;1.00;;;;;;5132283;27;20232;-67
2021/03/14 10:15:41;;;;;;;58.15;3.05;;;6.60;1.00;;;;;;5125013;27;20491;-67
2021/03/14 10:18:08;;;;;;;60.00;3.10;;;6.60;1.00;;;;;;5127433;27;20575;-67
2021/03/14 10:20:36;;;;;;;57.10;3.17;;;6.60;1.00;;;;;;5130212;27;20282;-67
2021/03/14 10:23:04;;;;;;;56.42;2.25;;;6.70;1.00;;;;;;5123575;27;20201;-67
2021/03/14 10:25:33;;;;;;;62.78;4.90;;;6.80;1.00;;;;;;5125566;27;20196;-66
2021/03/14 10:28:11;;;;;;;62.30;3.00;;;6.70;1.00;;;;;;5127727;27;20221;-67
2021/03/14 10:30:41;;;;;;;57.45;2.60;;;6.70;1.00;;;;;;5128769;27;20763;-67
2021/03/14 10:33:09;;;;;;;56.55;2.60;;;6.70;1.00;;;;;;5124136;28;20205;-67
2021/03/14 10:35:35;;;;;;;56.65;2.75;;;6.60;1.00;;;;;;5131939;27;20263;-67
2021/03/14 10:38:14;;;;;;;58.80;3.00;;;6.60;1.00;;;;;;5132375;27;20246;-67
2021/03/14 10:40:40;;;;;;;58.40;2.95;;;6.70;1.00;;;;;;5131805;27;20733;-66
2021/03/14 10:43:21;;;;;;;56.63;2.63;;;6.70;1.00;;;;;;5131027;27;20311;-67
2021/03/14 10:45:52;;;;;;;56.92;2.42;;;6.80;1.00;;;;;;5131718;27;20240;-67
2021/03/14 10:48:24;;;;;;;56.58;3.00;;;6.80;1.00;;;;;;5133711;27;20597;-67
2021/03/14 10:50:59;;;;;;;56.08;2.70;;;6.90;1.00;;;;;;5136230;27;20230;-67
2021/03/14 10:53:26;;;;;;;58.35;3.25;;;6.90;1.00;;;;;;5135924;27;20209;-67
2021/03/14 10:56:02;;;;;;;58.97;2.90;;;6.90;1.00;;;;;;5135635;27;20329;-67
2021/03/14 10:58:40;;;;;;;57.75;2.80;;;6.90;1.00;;;;;;5135953;27;20700;-67
2021/03/14 11:01:08;;;;;;;57.85;3.25;;;7.00;1.00;;;;;;5136013;27;20209;-67
2021/03/14 11:03:37;;;;;;;57.25;2.83;;;7.10;1.00;;;;;;5135454;27;20261;-67
2021/03/14 11:06:15;;;;;;;58.90;3.42;;;7.30;1.00;;;;;;5135561;27;20547;-67
2021/03/14 11:08:47;;;;;;;56.55;2.60;;;7.80;1.00;;;;;;5135397;27;20243;-67
2021/03/14 11:11:13;;;;;;;56.60;2.58;;;8.30;1.00;;;;;;5135395;27;20291;-67
2021/03/14 11:13:40;;;;;;;56.95;2.35;;;8.60;1.00;;;;;;5135457;27;20208;-67
2021/03/14 11:16:08;;;;;;;57.03;2.87;;;8.80;1.00;;;;;;5135182;27;20273;-67
2021/03/14 11:18:35;;;;;;;57.40;2.87;;;9.70;1.00;;;;;;5135278;27;20481;-67
2021/03/14 11:21:03;;;;;;;59.60;2.67;;;10.20;1.00;;;;;;5135110;27;20537;-67
2021/03/14 11:23:29;;;;;;;56.27;2.50;;;10.00;1.00;;;;;;5134899;27;20856;-68
2021/03/14 11:25:56;;;;;;;56.90;2.50;;;9.80;1.00;;;;;;5135611;27;20492;-68
2021/03/14 11:28:22;;;;;;;57.50;2.60;;;10.10;1.00;;;;;;5134879;27;20547;-68
2021/03/14 11:30:50;;;;;;;57.13;2.60;;;10.50;1.00;;;;;;5135455;27;20543;-68
2021/03/14 11:33:16;;;;;;;56.20;2.67;;;10.70;1.00;;;;;;5135202;27;20476;-68
2021/03/14 11:35:43;;;;;;;63.67;2.57;;;10.70;1.00;;;;;;5134914;27;20495;-66
2021/03/14 11:38:09;;;;;;;56.43;2.73;;;11.20;1.00;;;;;;5134589;27;20537;-66
2021/03/14 11:40:36;;;;;;;62.47;3.00;;;11.50;1.00;;;;;;5130714;27;21015;-66
2021/03/14 11:43:03;;;;;;;57.13;2.60;;;11.70;1.00;;;;;;5128990;27;20448;-66
2021/03/14 11:45:29;;;;;;;57.93;2.60;;;11.90;1.00;;;;;;5128988;27;21026;-67
2021/03/14 11:47:56;;;;;;;56.00;2.70;;;11.90;1.00;;;;;;5134555;27;20767;-66
2021/03/14 11:50:23;;;;;;;56.90;2.63;;;11.90;1.00;;;;;;5134487;27;21005;-66
2021/03/14 11:52:49;;;;;;;56.70;2.80;;;11.90;1.00;;;;;;5134330;27;20948;-66
2021/03/14 11:55:17;;;;;;;57.03;2.40;;;12.30;1.00;;;;;;5134381;27;21071;-66
2021/03/14 11:57:43;;;;;;;57.30;2.53;;;12.10;1.00;;;;;;5134415;27;20477;-66
2021/03/14 12:00:11;;;;;;;56.77;2.57;;;11.30;1.00;;;;;;5133920;27;20439;-67
2021/03/14 12:02:37;;;;;;;56.97;2.80;;;10.60;1.00;;;;;;5131018;27;20536;-66
2021/03/14 12:05:06;;;;;;;57.60;2.80;;;10.10;1.00;;;;;;5130161;27;20454;-67
2021/03/14 12:07:32;;;;;;;57.07;2.47;;;9.60;1.00;;;;;;5126233;27;20871;-67
2021/03/14 12:09:58;;;;;;;57.50;3.00;;;9.20;1.00;;;;;;5133895;27;20480;-67
2021/03/14 12:12:25;;;;;;;57.57;3.00;;;8.80;1.00;;;;;;5134111;27;20595;-67
2021/03/14 12:14:51;;;;;;;57.70;2.50;;;8.70;1.00;;;;;;5133979;27;20937;-67
2021/03/14 12:17:17;;;;;;;57.50;2.53;;;8.50;1.00;;;;;;5133847;27;20558;-67
2021/03/14 12:19:44;;;;;;;58.35;2.50;;;8.40;1.00;;;;;;5133560;27;20487;-67
2021/03/14 12:22:11;;;;;;;57.77;2.47;;;8.30;1.00;;;;;;5130681;27;20580;-67
2021/03/14 12:24:38;;;;;;;57.50;2.87;;;8.20;1.00;;;;;;5134120;27;20565;-67
2021/03/14 12:27:05;;;;;;;56.83;3.30;;;8.10;1.00;;;;;;5125314;27;20457;-67
2021/03/14 12:29:31;;;;;;;57.80;2.97;;;8.00;1.00;;;;;;5133694;27;20594;-67
2021/03/14 12:31:58;;;;;;;56.67;2.60;;;8.00;1.00;;;;;;5133550;27;20578;-67
2021/03/14 12:34:24;;;;;;;59.43;2.93;;;7.90;1.00;;;;;;5133635;27;20512;-66
2021/03/14 12:36:50;;;;;;;56.63;2.70;;;7.70;1.00;;;;;;5133877;27;20488;-66
2021/03/14 12:39:18;;;;;;;56.83;2.60;;;7.50;1.00;;;;;;5133656;27;20253;-66
2021/03/14 12:41:44;;;;;;;56.28;2.67;;;7.30;1.00;;;;;;5133828;27;20296;-66
2021/03/14 12:44:10;;;;;;;58.53;2.58;;;7.20;1.00;;;;;;5133479;27;20247;-66
2021/03/14 12:46:37;;;;;;;57.67;2.60;;;7.10;1.00;;;;;;5133287;27;20223;-66
2021/03/14 12:49:03;;;;;;;57.72;2.85;;;7.00;1.00;;;;;;5133666;27;20801;-66
2021/03/14 12:51:30;;;;;;;57.20;2.90;;;6.80;1.00;;;;;;5133739;27;20293;-66
2021/03/14 12:53:56;;;;;;;57.28;2.75;;;6.80;1.00;;;;;;5133126;27;20289;-67
2021/03/14 12:56:24;;;;;;;57.03;2.75;;;6.80;1.00;;;;;;5133186;27;20745;-67
2021/03/14 12:58:51;;;;;;;58.15;3.28;;;6.90;1.00;;;;;;5133329;27;20219;-67
2021/03/14 13:01:17;;;;;;;56.97;2.20;;;6.90;1.00;;;;;;5132961;27;20229;-67
2021/03/14 13:03:43;;;;;;;57.15;2.45;;;6.90;1.00;;;;;;5133072;27;20293;-67